sensor_id;sensor_type;location;lat;lon;timestamp;P1;durP1;ratioP1;P2;durP2;ratioP2
48777;SDS011;34578;0.000;0.000;2024-01-06T00:02:40;4.13;;;1.40;;
48777;SDS011;34578;0.000;0.000;2024-01-06T00:07:40;2.50;;;1.47;;
48777;SDS011;34578;0.000;0.000;2024-01-06T00:12:41;4.33;;;1.60;;
48777;SDS011;34578;0.000;0.000;2024-01-06T00:17:41;3.90;;;1.83;;
48777;SDS011;34578;0.000;0.000;2024-01-06T00:22:41;2.57;;;1.43;;
48777;SDS011;34578;0.000;0.000;2024-01-06T00:27:44;3.38;;;1.48;;
48777;SDS011;34578;0.000;0.000;2024-01-06T00:32:44;3.83;;;1.87;;
48777;SDS011;34578;0.000;0.000;2024-01-06T00:37:47;3.15;;;1.45;;
48777;SDS011;34578;0.000;0.000;2024-01-06T00:42:47;1.40;;;1.30;;
48777;SDS011;34578;0.000;0.000;2024-01-06T00:47:48;2.20;;;1.50;;
48777;SDS011;34578;0.000;0.000;2024-01-06T00:52:48;4.50;;;1.47;;
48777;SDS011;34578;0.000;0.000;2024-01-06T00:57:52;3.65;;;1.63;;
48777;SDS011;34578;0.000;0.000;2024-01-06T01:02:52;1.83;;;1.40;;
48777;SDS011;34578;0.000;0.000;2024-01-06T01:07:53;4.03;;;1.33;;
48777;SDS011;34578;0.000;0.000;2024-01-06T01:12:53;2.20;;;1.50;;
48777;SDS011;34578;0.000;0.000;2024-01-06T01:17:53;3.87;;;1.67;;
48777;SDS011;34578;0.000;0.000;2024-01-06T01:22:54;2.37;;;0.90;;
48777;SDS011;34578;0.000;0.000;2024-01-06T01:27:54;2.57;;;1.17;;
48777;SDS011;34578;0.000;0.000;2024-01-06T01:32:54;4.70;;;1.60;;
48777;SDS011;34578;0.000;0.000;2024-01-06T01:37:55;4.20;;;1.33;;
48777;SDS011;34578;0.000;0.000;2024-01-06T01:42:55;4.20;;;1.50;;
48777;SDS011;34578;0.000;0.000;2024-01-06T01:47:55;3.80;;;1.77;;
48777;SDS011;34578;0.000;0.000;2024-01-06T01:52:56;5.57;;;1.83;;
48777;SDS011;34578;0.000;0.000;2024-01-06T01:57:56;3.05;;;1.30;;
48777;SDS011;34578;0.000;0.000;2024-01-06T02:02:58;4.75;;;1.58;;
48777;SDS011;34578;0.000;0.000;2024-01-06T02:07:59;5.43;;;1.95;;
48777;SDS011;34578;0.000;0.000;2024-01-06T02:13:12;4.67;;;1.80;;
48777;SDS011;34578;0.000;0.000;2024-01-06T02:18:12;3.05;;;1.15;;
48777;SDS011;34578;0.000;0.000;2024-01-06T02:23:13;3.60;;;1.27;;
48777;SDS011;34578;0.000;0.000;2024-01-06T02:28:13;3.77;;;1.40;;
48777;SDS011;34578;0.000;0.000;2024-01-06T02:33:13;4.07;;;1.20;;
48777;SDS011;34578;0.000;0.000;2024-01-06T02:38:14;4.57;;;1.10;;
48777;SDS011;34578;0.000;0.000;2024-01-06T02:43:14;4.40;;;1.27;;
48777;SDS011;34578;0.000;0.000;2024-01-06T02:48:15;2.43;;;1.30;;
48777;SDS011;34578;0.000;0.000;2024-01-06T02:53:16;4.25;;;1.38;;
48777;SDS011;34578;0.000;0.000;2024-01-06T02:58:16;4.45;;;1.27;;
48777;SDS011;34578;0.000;0.000;2024-01-06T03:03:16;2.80;;;1.13;;
48777;SDS011;34578;0.000;0.000;2024-01-06T03:08:17;3.07;;;1.37;;
48777;SDS011;34578;0.000;0.000;2024-01-06T03:13:17;3.60;;;1.27;;
48777;SDS011;34578;0.000;0.000;2024-01-06T03:18:17;3.47;;;1.00;;
48777;SDS011;34578;0.000;0.000;2024-01-06T03:23:18;7.20;;;1.30;;
48777;SDS011;34578;0.000;0.000;2024-01-06T03:28:18;5.20;;;1.10;;
48777;SDS011;34578;0.000;0.000;2024-01-06T03:33:19;3.83;;;1.20;;
48777;SDS011;34578;0.000;0.000;2024-01-06T03:38:19;2.87;;;1.13;;
48777;SDS011;34578;0.000;0.000;2024-01-06T03:43:19;1.87;;;0.90;;
48777;SDS011;34578;0.000;0.000;2024-01-06T03:48:20;4.10;;;1.17;;
48777;SDS011;34578;0.000;0.000;2024-01-06T03:53:20;2.27;;;1.23;;
48777;SDS011;34578;0.000;0.000;2024-01-06T03:58:23;2.65;;;1.38;;
48777;SDS011;34578;0.000;0.000;2024-01-06T04:03:23;2.93;;;0.97;;
48777;SDS011;34578;0.000;0.000;2024-01-06T04:08:23;1.93;;;1.00;;
48777;SDS011;34578;0.000;0.000;2024-01-06T04:13:24;1.47;;;0.93;;
48777;SDS011;34578;0.000;0.000;2024-01-06T04:18:24;1.20;;;0.80;;
48777;SDS011;34578;0.000;0.000;2024-01-06T04:23:25;2.17;;;1.33;;
48777;SDS011;34578;0.000;0.000;2024-01-06T04:28:25;2.43;;;1.20;;
48777;SDS011;34578;0.000;0.000;2024-01-06T04:33:26;1.23;;;0.90;;
48777;SDS011;34578;0.000;0.000;2024-01-06T04:38:26;3.70;;;1.30;;
48777;SDS011;34578;0.000;0.000;2024-01-06T04:43:26;6.87;;;1.30;;
48777;SDS011;34578;0.000;0.000;2024-01-06T04:48:26;4.97;;;1.07;;
48777;SDS011;34578;0.000;0.000;2024-01-06T04:53:27;2.03;;;0.80;;
48777;SDS011;34578;0.000;0.000;2024-01-06T04:58:27;1.47;;;1.10;;
48777;SDS011;34578;0.000;0.000;2024-01-06T05:03:27;4.17;;;1.60;;
48777;SDS011;34578;0.000;0.000;2024-01-06T05:08:28;2.70;;;1.00;;
48777;SDS011;34578;0.000;0.000;2024-01-06T05:13:30;4.05;;;1.00;;
48777;SDS011;34578;0.000;0.000;2024-01-06T05:18:31;1.50;;;1.07;;
48777;SDS011;34578;0.000;0.000;2024-01-06T05:23:31;2.87;;;2.00;;
48777;SDS011;34578;0.000;0.000;2024-01-06T05:28:31;3.30;;;1.30;;
48777;SDS011;34578;0.000;0.000;2024-01-06T05:33:32;4.53;;;1.10;;
48777;SDS011;34578;0.000;0.000;2024-01-06T05:38:32;2.97;;;1.00;;
48777;SDS011;34578;0.000;0.000;2024-01-06T05:43:32;1.50;;;0.83;;
48777;SDS011;34578;0.000;0.000;2024-01-06T05:48:33;2.37;;;1.00;;
48777;SDS011;34578;0.000;0.000;2024-01-06T05:53:33;2.77;;;0.80;;
48777;SDS011;34578;0.000;0.000;2024-01-06T05:58:33;1.77;;;0.80;;
48777;SDS011;34578;0.000;0.000;2024-01-06T06:03:34;1.57;;;0.87;;
48777;SDS011;34578;0.000;0.000;2024-01-06T06:08:34;1.37;;;0.90;;
48777;SDS011;34578;0.000;0.000;2024-01-06T06:13:34;1.50;;;0.87;;
48777;SDS011;34578;0.000;0.000;2024-01-06T06:18:35;1.33;;;0.70;;
48777;SDS011;34578;0.000;0.000;2024-01-06T06:23:35;1.97;;;0.93;;
48777;SDS011;34578;0.000;0.000;2024-01-06T06:28:35;2.23;;;0.70;;
48777;SDS011;34578;0.000;0.000;2024-01-06T06:33:36;1.47;;;0.97;;
48777;SDS011;34578;0.000;0.000;2024-01-06T06:38:36;2.80;;;0.80;;
48777;SDS011;34578;0.000;0.000;2024-01-06T06:43:37;2.25;;;1.00;;
48777;SDS011;34578;0.000;0.000;2024-01-06T06:48:37;1.13;;;0.90;;
48777;SDS011;34578;0.000;0.000;2024-01-06T06:53:40;0.95;;;0.70;;
48777;SDS011;34578;0.000;0.000;2024-01-06T06:58:40;1.10;;;0.60;;
48777;SDS011;34578;0.000;0.000;2024-01-06T07:03:41;0.83;;;0.60;;
48777;SDS011;34578;0.000;0.000;2024-01-06T07:08:42;5.63;;;0.85;;
48777;SDS011;34578;0.000;0.000;2024-01-06T07:13:42;2.47;;;0.90;;
48777;SDS011;34578;0.000;0.000;2024-01-06T07:18:42;2.00;;;0.70;;
48777;SDS011;34578;0.000;0.000;2024-01-06T07:23:43;2.55;;;0.93;;
48777;SDS011;34578;0.000;0.000;2024-01-06T07:28:44;2.10;;;0.80;;
48777;SDS011;34578;0.000;0.000;2024-01-06T07:33:46;2.15;;;0.93;;
48777;SDS011;34578;0.000;0.000;2024-01-06T07:38:47;1.33;;;1.00;;
48777;SDS011;34578;0.000;0.000;2024-01-06T07:43:47;3.03;;;0.90;;
48777;SDS011;34578;0.000;0.000;2024-01-06T07:48:47;1.80;;;0.87;;
48777;SDS011;34578;0.000;0.000;2024-01-06T07:53:48;2.20;;;1.30;;
48777;SDS011;34578;0.000;0.000;2024-01-06T07:58:48;2.78;;;1.00;;
48777;SDS011;34578;0.000;0.000;2024-01-06T08:03:48;4.30;;;2.07;;
48777;SDS011;34578;0.000;0.000;2024-01-06T08:08:49;3.60;;;2.40;;
48777;SDS011;34578;0.000;0.000;2024-01-06T08:13:49;10.43;;;4.22;;
48777;SDS011;34578;0.000;0.000;2024-01-06T08:18:50;9.20;;;4.93;;
48777;SDS011;34578;0.000;0.000;2024-01-06T08:23:50;7.57;;;4.37;;
48777;SDS011;34578;0.000;0.000;2024-01-06T08:28:50;6.77;;;3.77;;
48777;SDS011;34578;0.000;0.000;2024-01-06T08:33:51;5.60;;;4.10;;
48777;SDS011;34578;0.000;0.000;2024-01-06T08:38:51;6.87;;;4.63;;
48777;SDS011;34578;0.000;0.000;2024-01-06T08:43:51;7.70;;;5.20;;
48777;SDS011;34578;0.000;0.000;2024-01-06T08:48:52;9.90;;;4.43;;
48777;SDS011;34578;0.000;0.000;2024-01-06T08:53:52;5.10;;;4.00;;
48777;SDS011;34578;0.000;0.000;2024-01-06T08:58:53;3.85;;;3.45;;
48777;SDS011;34578;0.000;0.000;2024-01-06T09:03:54;5.05;;;3.30;;
48777;SDS011;34578;0.000;0.000;2024-01-06T09:08:54;4.83;;;3.77;;
48777;SDS011;34578;0.000;0.000;2024-01-06T09:13:55;5.70;;;3.97;;
48777;SDS011;34578;0.000;0.000;2024-01-06T09:18:55;4.40;;;3.20;;
48777;SDS011;34578;0.000;0.000;2024-01-06T09:23:55;6.37;;;3.30;;
48777;SDS011;34578;0.000;0.000;2024-01-06T09:28:56;4.40;;;3.28;;
48777;SDS011;34578;0.000;0.000;2024-01-06T09:33:59;6.93;;;3.33;;
48777;SDS011;34578;0.000;0.000;2024-01-06T09:39:01;5.55;;;3.00;;
48777;SDS011;34578;0.000;0.000;2024-01-06T09:44:02;3.38;;;3.08;;
48777;SDS011;34578;0.000;0.000;2024-01-06T09:49:02;3.97;;;3.10;;
48777;SDS011;34578;0.000;0.000;2024-01-06T09:54:04;3.40;;;2.60;;
48777;SDS011;34578;0.000;0.000;2024-01-06T09:59:12;4.43;;;2.90;;
48777;SDS011;34578;0.000;0.000;2024-01-06T10:04:12;2.77;;;2.33;;
48777;SDS011;34578;0.000;0.000;2024-01-06T10:09:13;2.60;;;2.40;;
48777;SDS011;34578;0.000;0.000;2024-01-06T10:14:13;2.53;;;2.00;;
48777;SDS011;34578;0.000;0.000;2024-01-06T10:19:13;2.93;;;2.30;;
48777;SDS011;34578;0.000;0.000;2024-01-06T10:24:14;2.67;;;2.23;;
48777;SDS011;34578;0.000;0.000;2024-01-06T10:29:14;4.22;;;2.15;;
48777;SDS011;34578;0.000;0.000;2024-01-06T10:34:14;4.10;;;2.27;;
48777;SDS011;34578;0.000;0.000;2024-01-06T10:39:15;4.20;;;1.88;;
48777;SDS011;34578;0.000;0.000;2024-01-06T10:44:16;2.60;;;2.40;;
48777;SDS011;34578;0.000;0.000;2024-01-06T10:49:16;2.50;;;2.30;;
48777;SDS011;34578;0.000;0.000;2024-01-06T10:54:17;3.65;;;2.88;;
48777;SDS011;34578;0.000;0.000;2024-01-06T10:59:19;4.97;;;3.05;;
48777;SDS011;34578;0.000;0.000;2024-01-06T11:04:22;2.88;;;2.35;;
48777;SDS011;34578;0.000;0.000;2024-01-06T11:09:24;3.00;;;2.55;;
48777;SDS011;34578;0.000;0.000;2024-01-06T11:14:36;6.18;;;2.22;;
48777;SDS011;34578;0.000;0.000;2024-01-06T11:24:38;2.63;;;2.13;;
48777;SDS011;34578;0.000;0.000;2024-01-06T11:29:43;2.85;;;2.17;;
48777;SDS011;34578;0.000;0.000;2024-01-06T11:34:48;4.53;;;2.33;;
48777;SDS011;34578;0.000;0.000;2024-01-06T11:39:49;2.92;;;2.65;;
48777;SDS011;34578;0.000;0.000;2024-01-06T11:44:50;3.78;;;2.10;;
48777;SDS011;34578;0.000;0.000;2024-01-06T11:49:52;2.93;;;2.07;;
48777;SDS011;34578;0.000;0.000;2024-01-06T11:54:55;3.75;;;2.00;;
48777;SDS011;34578;0.000;0.000;2024-01-06T11:59:55;2.20;;;1.70;;
48777;SDS011;34578;0.000;0.000;2024-01-06T12:04:56;2.73;;;1.57;;
48777;SDS011;34578;0.000;0.000;2024-01-06T12:10:03;4.60;;;2.03;;
48777;SDS011;34578;0.000;0.000;2024-01-06T12:15:04;3.50;;;1.85;;
48777;SDS011;34578;0.000;0.000;2024-01-06T12:20:05;4.82;;;1.65;;
48777;SDS011;34578;0.000;0.000;2024-01-06T12:25:09;2.10;;;1.85;;
48777;SDS011;34578;0.000;0.000;2024-01-06T12:30:13;1.75;;;1.58;;
48777;SDS011;34578;0.000;0.000;2024-01-06T12:35:19;3.08;;;1.20;;
48777;SDS011;34578;0.000;0.000;2024-01-06T12:40:20;1.08;;;0.98;;
48777;SDS011;34578;0.000;0.000;2024-01-06T12:45:21;1.65;;;1.10;;
48777;SDS011;34578;0.000;0.000;2024-01-06T12:50:22;1.42;;;0.85;;
48777;SDS011;34578;0.000;0.000;2024-01-06T12:55:22;2.13;;;1.00;;
48777;SDS011;34578;0.000;0.000;2024-01-06T13:00:23;1.80;;;1.50;;
48777;SDS011;34578;0.000;0.000;2024-01-06T13:05:23;1.57;;;1.47;;
48777;SDS011;34578;0.000;0.000;2024-01-06T13:10:23;1.47;;;1.30;;
48777;SDS011;34578;0.000;0.000;2024-01-06T13:15:24;1.13;;;1.02;;
48777;SDS011;34578;0.000;0.000;2024-01-06T13:20:24;1.52;;;1.20;;
48777;SDS011;34578;0.000;0.000;2024-01-06T13:25:24;1.63;;;1.40;;
48777;SDS011;34578;0.000;0.000;2024-01-06T13:30:25;5.20;;;1.60;;
48777;SDS011;34578;0.000;0.000;2024-01-06T13:35:26;1.83;;;1.20;;
48777;SDS011;34578;0.000;0.000;2024-01-06T13:40:26;4.70;;;1.00;;
48777;SDS011;34578;0.000;0.000;2024-01-06T13:45:26;1.80;;;1.13;;
48777;SDS011;34578;0.000;0.000;2024-01-06T13:50:27;4.40;;;1.40;;
48777;SDS011;34578;0.000;0.000;2024-01-06T13:55:30;2.92;;;1.10;;
48777;SDS011;34578;0.000;0.000;2024-01-06T14:00:30;3.23;;;1.60;;
48777;SDS011;34578;0.000;0.000;2024-01-06T14:05:31;1.70;;;1.10;;
48777;SDS011;34578;0.000;0.000;2024-01-06T14:10:32;1.65;;;1.23;;
48777;SDS011;34578;0.000;0.000;2024-01-06T14:15:32;1.43;;;1.27;;
48777;SDS011;34578;0.000;0.000;2024-01-06T14:20:33;7.57;;;2.40;;
48777;SDS011;34578;0.000;0.000;2024-01-06T14:25:37;2.92;;;1.38;;
48777;SDS011;34578;0.000;0.000;2024-01-06T14:30:38;3.30;;;1.63;;
48777;SDS011;34578;0.000;0.000;2024-01-06T14:35:38;1.50;;;1.13;;
48777;SDS011;34578;0.000;0.000;2024-01-06T14:40:38;3.53;;;1.43;;
48777;SDS011;34578;0.000;0.000;2024-01-06T14:45:39;1.53;;;1.20;;
48777;SDS011;34578;0.000;0.000;2024-01-06T14:50:39;2.95;;;1.38;;
48777;SDS011;34578;0.000;0.000;2024-01-06T14:55:40;2.90;;;1.67;;
48777;SDS011;34578;0.000;0.000;2024-01-06T15:00:40;2.85;;;1.15;;
48777;SDS011;34578;0.000;0.000;2024-01-06T15:05:41;2.58;;;2.15;;
48777;SDS011;34578;0.000;0.000;2024-01-06T15:10:41;3.77;;;1.77;;
48777;SDS011;34578;0.000;0.000;2024-01-06T15:15:41;2.97;;;1.30;;
48777;SDS011;34578;0.000;0.000;2024-01-06T15:20:42;4.17;;;1.47;;
48777;SDS011;34578;0.000;0.000;2024-01-06T15:25:42;4.00;;;1.33;;
48777;SDS011;34578;0.000;0.000;2024-01-06T15:30:42;2.77;;;1.50;;
48777;SDS011;34578;0.000;0.000;2024-01-06T15:35:45;2.90;;;1.50;;
48777;SDS011;34578;0.000;0.000;2024-01-06T15:40:45;9.50;;;2.57;;
48777;SDS011;34578;0.000;0.000;2024-01-06T15:45:45;5.80;;;2.30;;
48777;SDS011;34578;0.000;0.000;2024-01-06T15:50:46;2.37;;;1.57;;
48777;SDS011;34578;0.000;0.000;2024-01-06T15:55:46;2.47;;;1.50;;
48777;SDS011;34578;0.000;0.000;2024-01-06T16:00:47;2.17;;;1.40;;
48777;SDS011;34578;0.000;0.000;2024-01-06T16:05:47;2.93;;;1.83;;
48777;SDS011;34578;0.000;0.000;2024-01-06T16:10:47;3.50;;;1.58;;
48777;SDS011;34578;0.000;0.000;2024-01-06T16:15:48;3.00;;;1.58;;
48777;SDS011;34578;0.000;0.000;2024-01-06T16:20:50;3.17;;;1.67;;
48777;SDS011;34578;0.000;0.000;2024-01-06T16:25:53;6.22;;;1.77;;
48777;SDS011;34578;0.000;0.000;2024-01-06T16:30:53;6.10;;;1.63;;
48777;SDS011;34578;0.000;0.000;2024-01-06T16:35:53;2.03;;;1.60;;
48777;SDS011;34578;0.000;0.000;2024-01-06T16:40:54;3.23;;;2.07;;
48777;SDS011;34578;0.000;0.000;2024-01-06T16:45:55;3.50;;;2.03;;
48777;SDS011;34578;0.000;0.000;2024-01-06T16:50:55;2.27;;;1.67;;
48777;SDS011;34578;0.000;0.000;2024-01-06T16:55:56;6.67;;;2.73;;
48777;SDS011;34578;0.000;0.000;2024-01-06T17:00:56;2.73;;;2.07;;
48777;SDS011;34578;0.000;0.000;2024-01-06T17:05:56;5.93;;;2.20;;
48777;SDS011;34578;0.000;0.000;2024-01-06T17:10:57;4.37;;;2.07;;
48777;SDS011;34578;0.000;0.000;2024-01-06T17:15:58;3.38;;;2.45;;
48777;SDS011;34578;0.000;0.000;2024-01-06T17:20:58;3.47;;;2.07;;
48777;SDS011;34578;0.000;0.000;2024-01-06T17:26:00;3.47;;;1.80;;
48777;SDS011;34578;0.000;0.000;2024-01-06T17:31:00;5.03;;;2.37;;
48777;SDS011;34578;0.000;0.000;2024-01-06T17:36:01;4.60;;;2.07;;
48777;SDS011;34578;0.000;0.000;2024-01-06T17:41:01;8.73;;;1.83;;
48777;SDS011;34578;0.000;0.000;2024-01-06T17:46:01;3.70;;;2.23;;
48777;SDS011;34578;0.000;0.000;2024-01-06T17:51:02;4.30;;;1.80;;
48777;SDS011;34578;0.000;0.000;2024-01-06T17:56:03;2.60;;;1.58;;
48777;SDS011;34578;0.000;0.000;2024-01-06T18:01:03;2.40;;;1.52;;
48777;SDS011;34578;0.000;0.000;2024-01-06T18:06:04;2.60;;;1.65;;
48777;SDS011;34578;0.000;0.000;2024-01-06T18:11:04;2.60;;;1.70;;
48777;SDS011;34578;0.000;0.000;2024-01-06T18:16:05;2.70;;;2.00;;
48777;SDS011;34578;0.000;0.000;2024-01-06T18:21:06;2.90;;;2.10;;
48777;SDS011;34578;0.000;0.000;2024-01-06T18:26:08;2.50;;;1.67;;
48777;SDS011;34578;0.000;0.000;2024-01-06T18:31:09;3.35;;;1.70;;
48777;SDS011;34578;0.000;0.000;2024-01-06T18:36:09;3.28;;;2.00;;
48777;SDS011;34578;0.000;0.000;2024-01-06T18:41:10;4.53;;;2.00;;
48777;SDS011;34578;0.000;0.000;2024-01-06T18:46:11;5.63;;;2.22;;
48777;SDS011;34578;0.000;0.000;2024-01-06T18:51:12;3.40;;;2.73;;
48777;SDS011;34578;0.000;0.000;2024-01-06T18:56:12;2.53;;;2.00;;
48777;SDS011;34578;0.000;0.000;2024-01-06T19:01:12;2.97;;;2.33;;
48777;SDS011;34578;0.000;0.000;2024-01-06T19:06:13;1.60;;;1.30;;
48777;SDS011;34578;0.000;0.000;2024-01-06T19:11:14;2.20;;;1.77;;
48777;SDS011;34578;0.000;0.000;2024-01-06T19:16:15;2.47;;;1.97;;
48777;SDS011;34578;0.000;0.000;2024-01-06T19:21:15;4.77;;;2.00;;
48777;SDS011;34578;0.000;0.000;2024-01-06T19:26:15;2.07;;;1.80;;
48777;SDS011;34578;0.000;0.000;2024-01-06T19:31:17;3.13;;;1.92;;
48777;SDS011;34578;0.000;0.000;2024-01-06T19:36:17;4.77;;;1.87;;
48777;SDS011;34578;0.000;0.000;2024-01-06T19:41:18;3.72;;;2.08;;
48777;SDS011;34578;0.000;0.000;2024-01-06T19:46:18;3.10;;;1.80;;
48777;SDS011;34578;0.000;0.000;2024-01-06T19:51:18;2.13;;;1.73;;
48777;SDS011;34578;0.000;0.000;2024-01-06T19:56:19;3.55;;;2.00;;
48777;SDS011;34578;0.000;0.000;2024-01-06T20:01:19;5.72;;;1.83;;
48777;SDS011;34578;0.000;0.000;2024-01-06T20:06:20;2.75;;;2.00;;
48777;SDS011;34578;0.000;0.000;2024-01-06T20:11:20;10.13;;;2.27;;
48777;SDS011;34578;0.000;0.000;2024-01-06T20:16:20;6.17;;;2.07;;
48777;SDS011;34578;0.000;0.000;2024-01-06T20:21:21;2.47;;;1.60;;
48777;SDS011;34578;0.000;0.000;2024-01-06T20:26:21;6.23;;;2.10;;
48777;SDS011;34578;0.000;0.000;2024-01-06T20:31:22;2.28;;;1.38;;
48777;SDS011;34578;0.000;0.000;2024-01-06T20:36:22;2.43;;;1.50;;
48777;SDS011;34578;0.000;0.000;2024-01-06T20:41:22;1.63;;;1.40;;
48777;SDS011;34578;0.000;0.000;2024-01-06T20:46:23;5.70;;;1.57;;
48777;SDS011;34578;0.000;0.000;2024-01-06T20:51:25;2.08;;;1.40;;
48777;SDS011;34578;0.000;0.000;2024-01-06T20:56:26;2.38;;;1.40;;
48777;SDS011;34578;0.000;0.000;2024-01-06T21:01:26;1.90;;;1.40;;
48777;SDS011;34578;0.000;0.000;2024-01-06T21:06:27;3.40;;;1.43;;
48777;SDS011;34578;0.000;0.000;2024-01-06T21:11:27;2.27;;;1.57;;
48777;SDS011;34578;0.000;0.000;2024-01-06T21:16:28;2.47;;;1.63;;
48777;SDS011;34578;0.000;0.000;2024-01-06T21:21:29;1.80;;;1.70;;
48777;SDS011;34578;0.000;0.000;2024-01-06T21:26:29;3.03;;;1.63;;
48777;SDS011;34578;0.000;0.000;2024-01-06T21:31:31;3.10;;;1.80;;
48777;SDS011;34578;0.000;0.000;2024-01-06T21:36:32;2.10;;;1.45;;
48777;SDS011;34578;0.000;0.000;2024-01-06T21:41:32;3.58;;;1.40;;
48777;SDS011;34578;0.000;0.000;2024-01-06T21:46:33;2.03;;;1.83;;
48777;SDS011;34578;0.000;0.000;2024-01-06T21:51:33;1.87;;;1.50;;
48777;SDS011;34578;0.000;0.000;2024-01-06T21:56:33;2.30;;;1.20;;
48777;SDS011;34578;0.000;0.000;2024-01-06T22:01:34;3.15;;;1.92;;
48777;SDS011;34578;0.000;0.000;2024-01-06T22:06:34;1.38;;;1.27;;
48777;SDS011;34578;0.000;0.000;2024-01-06T22:11:38;3.30;;;1.90;;
48777;SDS011;34578;0.000;0.000;2024-01-06T22:16:39;1.73;;;1.35;;
48777;SDS011;34578;0.000;0.000;2024-01-06T22:21:40;3.00;;;1.13;;
48777;SDS011;34578;0.000;0.000;2024-01-06T22:26:41;4.80;;;2.03;;
48777;SDS011;34578;0.000;0.000;2024-01-06T22:31:42;3.07;;;1.60;;
48777;SDS011;34578;0.000;0.000;2024-01-06T22:36:43;1.83;;;1.25;;
48777;SDS011;34578;0.000;0.000;2024-01-06T22:41:46;2.83;;;1.38;;
48777;SDS011;34578;0.000;0.000;2024-01-06T22:46:48;1.40;;;1.00;;
48777;SDS011;34578;0.000;0.000;2024-01-06T22:51:48;1.80;;;1.23;;
48777;SDS011;34578;0.000;0.000;2024-01-06T22:56:49;1.73;;;1.30;;
48777;SDS011;34578;0.000;0.000;2024-01-06T23:01:51;4.40;;;1.60;;
48777;SDS011;34578;0.000;0.000;2024-01-06T23:06:52;2.20;;;1.60;;
48777;SDS011;34578;0.000;0.000;2024-01-06T23:11:53;1.92;;;1.05;;
48777;SDS011;34578;0.000;0.000;2024-01-06T23:16:54;2.13;;;1.20;;
48777;SDS011;34578;0.000;0.000;2024-01-06T23:21:54;1.73;;;1.23;;
48777;SDS011;34578;0.000;0.000;2024-01-06T23:26:54;1.27;;;1.07;;
48777;SDS011;34578;0.000;0.000;2024-01-06T23:31:55;1.73;;;1.10;;
48777;SDS011;34578;0.000;0.000;2024-01-06T23:36:55;2.90;;;1.57;;
48777;SDS011;34578;0.000;0.000;2024-01-06T23:41:55;1.73;;;1.10;;
48777;SDS011;34578;0.000;0.000;2024-01-06T23:46:56;1.57;;;1.10;;
48777;SDS011;34578;0.000;0.000;2024-01-06T23:51:56;2.40;;;0.87;;
48777;SDS011;34578;0.000;0.000;2024-01-06T23:56:56;3.23;;;0.90;;
